createdAt,value
2023-03-26T00:02:23.600Z,80.13
2023-03-26T00:04:53.313Z,79.71
2023-03-26T00:07:21.029Z,79.83
2023-03-26T00:09:48.988Z,79.84
2023-03-26T00:12:16.821Z,79.88
2023-03-26T00:14:45.098Z,79.93
2023-03-26T00:17:12.828Z,79.50
2023-03-26T00:19:40.501Z,79.38
2023-03-26T00:22:08.437Z,79.47
2023-03-26T00:24:37.752Z,79.84
2023-03-26T00:27:05.875Z,80.00
2023-03-26T00:29:35.866Z,79.96
2023-03-26T00:32:03.673Z,80.08
2023-03-26T00:34:34.915Z,80.12
2023-03-26T00:37:03.265Z,79.85
2023-03-26T00:39:35.843Z,80.17
2023-03-26T00:42:07.315Z,80.19
2023-03-26T00:44:35.736Z,79.78
2023-03-26T00:47:03.715Z,80.07
2023-03-26T00:49:32.169Z,79.90
2023-03-26T00:51:59.817Z,79.87
2023-03-26T00:54:28.682Z,79.79
2023-03-26T00:56:56.764Z,79.86
2023-03-26T00:59:24.463Z,79.87
2023-03-26T01:01:55.174Z,79.99
2023-03-26T01:04:24.446Z,80.01
2023-03-26T01:06:52.329Z,79.88
2023-03-26T01:09:20.258Z,80.26
2023-03-26T01:11:47.975Z,79.93
2023-03-26T01:14:15.700Z,79.99
2023-03-26T01:16:45.146Z,79.61
2023-03-26T01:19:13.107Z,79.86
2023-03-26T01:21:41.340Z,79.63
2023-03-26T01:24:09.026Z,79.24
2023-03-26T01:26:36.654Z,80.26
2023-03-26T01:29:04.569Z,79.70
2023-03-26T01:31:37.059Z,79.78
2023-03-26T01:34:05.648Z,79.81
2023-03-26T01:36:33.450Z,79.99
2023-03-26T01:39:01.581Z,79.59
2023-03-26T01:41:29.278Z,79.89
2023-03-26T01:43:56.859Z,79.99
2023-03-26T01:46:26.120Z,80.34
2023-03-26T01:48:53.756Z,79.99
2023-03-26T01:51:21.377Z,79.50
2023-03-26T01:53:49.051Z,79.96
2023-03-26T01:56:16.693Z,79.62
2023-03-26T01:58:44.866Z,79.60
2023-03-26T02:01:13.635Z,79.56
2023-03-26T02:03:41.412Z,79.83
2023-03-26T02:06:09.990Z,79.61
2023-03-26T02:08:37.643Z,79.41
2023-03-26T02:11:06.172Z,79.63
2023-03-26T02:13:33.841Z,79.41
2023-03-26T02:16:01.519Z,79.58
2023-03-26T02:18:36.426Z,79.93
2023-03-26T02:21:04.175Z,79.54
2023-03-26T02:23:36.152Z,79.75
2023-03-26T02:26:03.839Z,79.43
2023-03-26T02:28:31.459Z,79.26
2023-03-26T02:31:01.930Z,79.49
2023-03-26T02:33:29.712Z,79.39
2023-03-26T02:35:59.981Z,79.71
2023-03-26T02:38:27.874Z,79.58
2023-03-26T02:40:55.596Z,79.49
2023-03-26T02:43:23.686Z,79.63
2023-03-26T02:45:51.380Z,79.37
2023-03-26T02:48:19.594Z,79.21
2023-03-26T02:50:50.223Z,80.01
2023-03-26T02:53:17.898Z,79.94
2023-03-26T02:55:45.612Z,79.80
2023-03-26T02:58:17.468Z,79.88
2023-03-26T03:00:45.196Z,79.95
2023-03-26T03:03:12.897Z,80.09
2023-03-26T03:05:43.356Z,80.17
2023-03-26T03:08:11.004Z,79.85
2023-03-26T03:10:39.650Z,79.74
2023-03-26T03:13:08.296Z,79.58
2023-03-26T03:15:36.121Z,79.77
2023-03-26T03:18:03.991Z,79.47
2023-03-26T03:20:31.678Z,79.58
2023-03-26T03:22:59.310Z,79.40
2023-03-26T03:25:27.339Z,79.38
2023-03-26T03:27:55.228Z,79.75
2023-03-26T03:30:22.829Z,80.05
2023-03-26T03:32:50.501Z,79.99
2023-03-26T03:35:18.200Z,80.05
2023-03-26T03:37:46.407Z,79.52
2023-03-26T03:40:14.088Z,80.31
2023-03-26T03:42:41.762Z,80.38
2023-03-26T03:45:09.473Z,80.12
2023-03-26T03:47:37.150Z,80.65
2023-03-26T03:50:05.375Z,80.64
2023-03-26T03:52:33.032Z,80.82
2023-03-26T03:55:01.249Z,80.82
2023-03-26T03:57:28.831Z,81.51
2023-03-26T03:59:58.340Z,81.30
2023-03-26T04:02:31.004Z,81.17
2023-03-26T04:04:58.764Z,81.41
2023-03-26T04:07:26.405Z,81.26
2023-03-26T04:09:54.438Z,81.48
2023-03-26T04:12:22.111Z,81.44
2023-03-26T04:14:50.496Z,81.39
2023-03-26T04:17:18.208Z,81.49
2023-03-26T04:19:45.894Z,81.45
2023-03-26T04:22:13.504Z,81.47
2023-03-26T04:24:41.373Z,81.92
2023-03-26T04:27:10.012Z,81.39
2023-03-26T04:29:38.380Z,81.50
2023-03-26T04:32:08.380Z,81.51
2023-03-26T04:34:36.449Z,81.20
2023-03-26T04:37:04.103Z,81.21
2023-03-26T04:39:34.569Z,80.64
2023-03-26T04:42:02.147Z,80.68
2023-03-26T04:44:30.429Z,80.80
2023-03-26T04:46:58.081Z,80.40
2023-03-26T04:49:25.842Z,80.60
2023-03-26T04:51:53.793Z,80.52
2023-03-26T04:54:21.818Z,80.37
2023-03-26T04:56:49.403Z,80.16
2023-03-26T04:59:16.990Z,80.42
2023-03-26T05:01:46.162Z,80.35
2023-03-26T05:04:14.541Z,80.30
2023-03-26T05:06:43.016Z,80.41
2023-03-26T05:09:10.826Z,80.12
2023-03-26T05:11:38.425Z,80.05
2023-03-26T05:14:06.032Z,80.46
2023-03-26T05:16:35.002Z,80.37
2023-03-26T05:19:02.731Z,80.12
2023-03-26T05:21:30.442Z,80.27
2023-03-26T05:23:58.089Z,80.08
2023-03-26T05:26:26.166Z,80.09
2023-03-26T05:28:53.965Z,80.31
2023-03-26T05:31:22.480Z,80.33
2023-03-26T05:33:50.058Z,80.09
2023-03-26T05:36:17.753Z,80.08
2023-03-26T05:38:47.855Z,80.17
2023-03-26T05:41:15.995Z,79.96
2023-03-26T05:43:43.698Z,79.98
2023-03-26T05:46:11.436Z,80.25
2023-03-26T05:48:39.414Z,79.50
2023-03-26T05:51:08.046Z,80.43
2023-03-26T05:53:36.116Z,79.96
2023-03-26T05:56:04.355Z,80.08
2023-03-26T05:58:31.934Z,80.14
2023-03-26T06:01:00.173Z,80.09
2023-03-26T06:03:27.994Z,79.70
2023-03-26T06:05:56.345Z,79.86
2023-03-26T06:08:24.071Z,79.69
2023-03-26T06:10:51.967Z,79.75
2023-03-26T06:13:19.649Z,79.43
2023-03-26T06:15:47.292Z,79.78
2023-03-26T06:18:15.586Z,79.50
2023-03-26T06:20:43.696Z,79.39
2023-03-26T06:23:11.402Z,79.72
2023-03-26T06:25:38.977Z,79.49
2023-03-26T06:28:06.697Z,79.72
2023-03-26T06:30:35.040Z,79.55
2023-03-26T06:33:02.725Z,79.44
2023-03-26T06:35:30.482Z,79.62
2023-03-26T06:37:58.167Z,79.08
2023-03-26T06:40:26.007Z,79.29
2023-03-26T06:43:09.198Z,79.37
2023-03-26T06:45:38.223Z,79.41
2023-03-26T06:48:05.909Z,79.48
2023-03-26T06:50:33.573Z,79.38
2023-03-26T06:53:01.546Z,79.26
2023-03-26T06:55:29.212Z,79.32
2023-03-26T06:57:58.265Z,79.52
2023-03-26T07:00:26.188Z,79.40
2023-03-26T07:02:53.788Z,79.58
2023-03-26T07:05:21.523Z,79.84
2023-03-26T07:07:50.785Z,79.54
2023-03-26T07:10:18.469Z,79.38
2023-03-26T07:12:46.158Z,79.44
2023-03-26T07:15:13.824Z,79.63
2023-03-26T07:17:42.082Z,79.47
2023-03-26T07:20:09.705Z,79.82
2023-03-26T07:22:37.397Z,79.47
2023-03-26T07:25:05.123Z,79.72
2023-03-26T07:27:32.858Z,79.83
2023-03-26T07:30:00.862Z,80.10
2023-03-26T07:32:28.517Z,79.97
2023-03-26T07:34:56.253Z,79.89
2023-03-26T07:37:23.987Z,80.08
2023-03-26T07:39:51.769Z,79.68
2023-03-26T07:42:19.929Z,80.28
2023-03-26T07:44:47.943Z,79.81
2023-03-26T07:47:15.709Z,79.69
2023-03-26T07:49:43.512Z,79.73
2023-03-26T07:52:11.223Z,79.62
2023-03-26T07:54:39.252Z,79.29
2023-03-26T07:57:07.020Z,79.39
2023-03-26T07:59:34.759Z,79.12
2023-03-26T08:02:02.437Z,78.95
2023-03-26T08:04:30.397Z,79.36
2023-03-26T08:06:59.881Z,78.89
2023-03-26T08:09:27.919Z,79.09
2023-03-26T08:11:55.650Z,78.73
2023-03-26T08:14:23.460Z,79.06
2023-03-26T08:16:51.112Z,78.93
2023-03-26T08:19:19.213Z,78.91
2023-03-26T08:21:48.155Z,78.89
2023-03-26T08:24:16.397Z,79.09
2023-03-26T08:26:44.250Z,79.48
2023-03-26T08:29:12.470Z,78.91
2023-03-26T08:31:40.609Z,78.73
2023-03-26T08:34:08.390Z,78.94
2023-03-26T08:36:36.080Z,78.91
2023-03-26T08:39:04.405Z,78.81
2023-03-26T08:41:32.136Z,79.21
2023-03-26T08:44:00.589Z,78.94
2023-03-26T08:46:28.391Z,78.92
2023-03-26T08:48:56.218Z,78.81
2023-03-26T08:51:24.117Z,78.80
2023-03-26T08:53:51.874Z,78.75
2023-03-26T08:56:20.168Z,79.23
2023-03-26T08:58:48.159Z,78.58
2023-03-26T09:01:15.961Z,78.52
2023-03-26T09:03:43.700Z,78.84
2023-03-26T09:06:11.505Z,78.82
2023-03-26T09:08:54.560Z,78.43
2023-03-26T09:11:22.534Z,78.67
2023-03-26T09:13:50.278Z,78.98
2023-03-26T09:16:18.029Z,79.09
2023-03-26T09:18:45.797Z,79.29
2023-03-26T09:21:13.549Z,78.62
2023-03-26T09:23:41.356Z,79.18
2023-03-26T09:26:09.065Z,79.11
2023-03-26T09:28:36.993Z,79.19
2023-03-26T09:31:05.600Z,79.00
2023-03-26T09:33:33.660Z,79.08
2023-03-26T09:36:01.531Z,78.64
2023-03-26T09:38:29.298Z,79.02
2023-03-26T09:40:57.447Z,78.88
2023-03-26T09:43:25.879Z,78.96
2023-03-26T09:45:53.810Z,79.17
2023-03-26T09:48:21.768Z,79.31
2023-03-26T09:50:50.238Z,78.92
2023-03-26T09:53:18.013Z,79.31
2023-03-26T09:55:47.418Z,79.13
2023-03-26T09:58:15.091Z,78.99
2023-03-26T10:00:43.050Z,79.47
2023-03-26T10:03:10.880Z,79.29
2023-03-26T10:05:41.567Z,79.65
2023-03-26T10:08:10.399Z,79.33
2023-03-26T10:10:38.264Z,79.39
2023-03-26T10:13:14.634Z,79.61
2023-03-26T10:15:42.974Z,79.65
2023-03-26T10:18:27.354Z,79.17
2023-03-26T10:20:57.437Z,79.43
2023-03-26T10:23:25.211Z,79.44
2023-03-26T10:25:53.050Z,79.53
2023-03-26T10:28:21.345Z,79.25
2023-03-26T10:30:49.271Z,79.51
2023-03-26T10:33:17.001Z,79.18
2023-03-26T10:35:45.302Z,79.31
2023-03-26T10:38:13.136Z,79.88
2023-03-26T10:40:43.676Z,79.44
2023-03-26T10:43:12.778Z,79.71
2023-03-26T10:45:40.750Z,79.52
2023-03-26T10:48:08.466Z,79.63
2023-03-26T10:50:36.428Z,79.63
2023-03-26T10:53:04.701Z,79.61
2023-03-26T10:55:32.582Z,79.70
2023-03-26T10:58:00.972Z,79.67
2023-03-26T11:00:29.376Z,79.63
2023-03-26T11:02:57.137Z,79.40
2023-03-26T11:05:25.176Z,79.88
2023-03-26T11:07:54.071Z,79.78
2023-03-26T11:10:22.030Z,80.14
2023-03-26T11:12:50.178Z,80.28
2023-03-26T11:15:18.040Z,80.28
2023-03-26T11:17:46.480Z,80.27
2023-03-26T11:20:14.491Z,81.06
2023-03-26T11:22:42.343Z,80.85
2023-03-26T11:25:10.147Z,80.67
2023-03-26T11:27:38.039Z,80.86
2023-03-26T11:30:06.622Z,81.33
2023-03-26T11:32:34.582Z,81.19
2023-03-26T11:35:02.719Z,81.28
2023-03-26T11:37:30.888Z,80.79
2023-03-26T11:39:59.065Z,81.09
2023-03-26T11:42:27.673Z,80.95
2023-03-26T11:44:55.507Z,81.02
2023-03-26T11:47:23.570Z,80.92
2023-03-26T11:49:51.613Z,80.53
2023-03-26T11:52:19.515Z,80.02
2023-03-26T11:54:48.699Z,79.99
2023-03-26T11:57:16.796Z,79.67
2023-03-26T11:59:56.429Z,79.65
2023-03-26T12:02:26.199Z,79.44
2023-03-26T12:04:55.904Z,79.26
2023-03-26T12:07:23.680Z,78.99
2023-03-26T12:09:51.652Z,79.20
2023-03-26T12:12:19.455Z,79.46
2023-03-26T12:14:47.316Z,78.85
2023-03-26T12:17:15.880Z,79.27
2023-03-26T12:19:43.912Z,79.45
2023-03-26T12:22:11.796Z,79.20
2023-03-26T12:24:39.943Z,79.19
2023-03-26T12:27:07.819Z,79.54
2023-03-26T12:29:36.148Z,79.35
2023-03-26T12:32:04.101Z,79.02
2023-03-26T12:34:35.132Z,78.73
2023-03-26T12:37:03.973Z,78.92
2023-03-26T12:40:07.747Z,78.68
2023-03-26T12:44:43.636Z,78.15
2023-03-26T12:45:09.155Z,78.10
2023-03-26T12:48:01.001Z,77.76
2023-03-26T12:50:34.936Z,78.24
2023-03-26T12:53:04.416Z,78.00
2023-03-26T12:55:32.266Z,78.26
2023-03-26T12:58:00.158Z,77.72
2023-03-26T13:00:41.981Z,78.13
2023-03-26T13:03:11.699Z,78.14
2023-03-26T13:05:40.079Z,77.95
2023-03-26T13:08:08.448Z,77.74
2023-03-26T13:10:36.464Z,77.84
2023-03-26T13:13:05.501Z,78.12
2023-03-26T13:15:34.181Z,78.09
2023-03-26T13:18:02.525Z,77.61
2023-03-26T13:20:30.533Z,77.83
2023-03-26T13:22:58.359Z,77.83
2023-03-26T13:25:26.661Z,77.47
2023-03-26T13:27:55.176Z,76.96
2023-03-26T13:30:23.334Z,77.00
2023-03-26T13:32:51.188Z,77.33
2023-03-26T13:35:19.323Z,76.79
2023-03-26T13:37:47.281Z,76.62
2023-03-26T13:40:16.081Z,76.71
2023-03-26T13:42:43.978Z,76.27
2023-03-26T13:45:11.840Z,76.24
2023-03-26T13:47:40.033Z,76.18
2023-03-26T13:50:08.072Z,76.50
2023-03-26T13:52:36.621Z,76.44
2023-03-26T13:55:04.454Z,76.21
2023-03-26T13:57:32.339Z,76.28
2023-03-26T14:00:00.184Z,76.50
2023-03-26T14:02:28.283Z,76.46
2023-03-26T14:04:56.617Z,75.96
2023-03-26T14:07:25.109Z,76.12
2023-03-26T14:09:53.246Z,76.20
2023-03-26T14:12:22.051Z,75.72
2023-03-26T14:14:49.952Z,76.08
2023-03-26T14:17:18.265Z,76.59
2023-03-26T14:19:47.810Z,76.23
2023-03-26T14:22:18.596Z,76.20
2023-03-26T14:24:46.413Z,75.99
2023-03-26T14:27:14.447Z,76.16
2023-03-26T14:29:56.697Z,75.85
2023-03-26T14:32:26.316Z,75.79
2023-03-26T14:34:54.446Z,76.53
2023-03-26T14:37:27.954Z,76.67
2023-03-26T14:39:56.382Z,77.02
2023-03-26T14:42:24.314Z,76.99
2023-03-26T14:44:52.047Z,77.60
2023-03-26T14:47:20.039Z,77.71
2023-03-26T14:49:48.028Z,78.20
2023-03-26T14:52:16.249Z,78.36
2023-03-26T14:54:44.241Z,78.50
2023-03-26T14:57:12.277Z,78.21
2023-03-26T14:59:40.238Z,78.53
2023-03-26T15:02:08.230Z,79.30
2023-03-26T15:04:36.756Z,79.41
2023-03-26T15:07:05.060Z,79.36
2023-03-26T15:09:33.025Z,78.83
2023-03-26T15:12:12.916Z,79.78
2023-03-26T15:14:41.686Z,79.96
2023-03-26T15:17:09.790Z,79.59
2023-03-26T15:19:38.268Z,79.88
2023-03-26T15:22:06.496Z,79.54
2023-03-26T15:24:34.233Z,79.86
2023-03-26T15:27:03.161Z,79.32
2023-03-26T15:29:31.283Z,79.22
2023-03-26T15:31:59.316Z,79.61
2023-03-26T15:34:30.222Z,79.39
2023-03-26T15:36:59.214Z,79.40
2023-03-26T15:39:28.265Z,79.03
2023-03-26T15:41:56.124Z,79.40
2023-03-26T15:44:25.585Z,79.53
2023-03-26T15:46:53.691Z,79.16
2023-03-26T15:49:21.535Z,79.53
2023-03-26T15:51:49.632Z,79.41
2023-03-26T15:54:17.940Z,80.08
2023-03-26T15:56:49.309Z,79.89
2023-03-26T15:59:17.758Z,80.19
2023-03-26T16:01:46.472Z,79.54
2023-03-26T16:04:15.157Z,79.68
2023-03-26T16:06:46.972Z,79.62
2023-03-26T16:09:15.063Z,79.60
2023-03-26T16:11:42.834Z,79.78
2023-03-26T16:14:11.184Z,79.95
2023-03-26T16:16:39.826Z,79.82
2023-03-26T16:19:08.533Z,79.95
2023-03-26T16:21:36.881Z,80.50
2023-03-26T16:24:04.604Z,80.45
2023-03-26T16:26:32.366Z,80.65
2023-03-26T16:29:00.698Z,80.68
2023-03-26T16:31:38.307Z,80.79
2023-03-26T16:34:08.605Z,80.88
2023-03-26T16:36:36.617Z,80.79
2023-03-26T16:39:05.542Z,81.02
2023-03-26T16:41:33.690Z,81.24
2023-03-26T16:44:02.444Z,81.04
2023-03-26T16:46:30.264Z,81.18
2023-03-26T16:48:58.397Z,81.18
2023-03-26T16:51:26.716Z,81.32
2023-03-26T16:53:54.631Z,81.35
2023-03-26T16:56:28.295Z,81.63
2023-03-26T16:58:56.556Z,81.65
2023-03-26T17:01:28.005Z,81.66
2023-03-26T17:03:58.936Z,81.58
2023-03-26T17:06:26.919Z,82.16
2023-03-26T17:08:54.825Z,81.86
2023-03-26T17:11:22.816Z,82.08
2023-03-26T17:13:51.002Z,82.37
2023-03-26T17:16:18.872Z,82.28
2023-03-26T17:18:46.962Z,82.25
2023-03-26T17:21:14.885Z,82.22
2023-03-26T17:23:42.798Z,82.71
2023-03-26T17:26:11.376Z,83.14
2023-03-26T17:28:39.738Z,82.36
2023-03-26T17:31:07.866Z,82.50
2023-03-26T17:33:37.030Z,82.86
2023-03-26T17:36:04.932Z,82.27
2023-03-26T17:38:32.796Z,82.34
2023-03-26T17:41:00.702Z,82.83
2023-03-26T17:43:28.792Z,82.72
2023-03-26T17:46:04.103Z,82.52
2023-03-26T17:48:35.758Z,82.71
2023-03-26T17:51:03.908Z,82.21
2023-03-26T17:53:31.780Z,82.34
2023-03-26T17:56:01.486Z,82.39
2023-03-26T17:58:29.450Z,82.72
2023-03-26T18:00:58.823Z,82.65
2023-03-26T18:03:29.592Z,82.77
2023-03-26T18:05:58.697Z,82.60
2023-03-26T18:08:26.302Z,83.14
2023-03-26T18:10:54.386Z,82.57
2023-03-26T18:13:22.399Z,82.88
2023-03-26T18:15:50.297Z,82.29
2023-03-26T18:18:20.182Z,82.29
2023-03-26T18:20:48.145Z,83.00
2023-03-26T18:23:15.997Z,82.61
2023-03-26T18:25:44.746Z,82.85
2023-03-26T18:28:12.566Z,82.97
2023-03-26T18:30:40.434Z,83.16
2023-03-26T18:33:08.600Z,83.28
2023-03-26T18:35:36.464Z,83.07
2023-03-26T18:38:05.233Z,83.54
2023-03-26T18:40:33.601Z,83.33
2023-03-26T18:43:01.534Z,83.23
2023-03-26T18:45:29.618Z,83.26
2023-03-26T18:47:57.781Z,83.23
2023-03-26T18:50:26.008Z,83.09
2023-03-26T18:52:54.164Z,83.06
2023-03-26T18:55:22.135Z,82.99
2023-03-26T18:57:49.902Z,83.48
2023-03-26T19:00:18.765Z,83.56
2023-03-26T19:02:48.721Z,83.52
2023-03-26T19:05:16.970Z,83.36
2023-03-26T19:07:46.098Z,83.16
2023-03-26T19:10:14.576Z,83.44
2023-03-26T19:12:42.445Z,83.58
2023-03-26T19:15:10.681Z,83.22
2023-03-26T19:17:38.942Z,83.48
2023-03-26T19:20:10.341Z,83.07
2023-03-26T19:22:41.750Z,83.10
2023-03-26T19:25:09.560Z,83.35
2023-03-26T19:27:39.223Z,83.03
2023-03-26T19:30:07.778Z,83.20
2023-03-26T19:32:35.789Z,83.12
2023-03-26T19:35:04.724Z,82.85
2023-03-26T19:37:32.859Z,82.95
2023-03-26T19:40:02.082Z,82.70
2023-03-26T19:42:42.925Z,82.90
2023-03-26T19:45:12.560Z,82.84
2023-03-26T19:47:50.109Z,82.75
2023-03-26T19:50:21.699Z,82.54
2023-03-26T19:52:52.174Z,82.35
2023-03-26T19:55:20.243Z,82.81
2023-03-26T19:57:48.206Z,82.58
2023-03-26T20:00:16.374Z,82.61
2023-03-26T20:02:46.495Z,81.71
2023-03-26T20:05:14.827Z,82.43
2023-03-26T20:07:44.936Z,82.12
2023-03-26T20:10:12.947Z,82.20
2023-03-26T20:12:40.837Z,82.14
2023-03-26T20:15:09.112Z,81.86
2023-03-26T20:17:50.402Z,81.46
2023-03-26T20:20:18.249Z,81.64
2023-03-26T20:22:47.134Z,81.66
2023-03-26T20:25:15.138Z,81.43
2023-03-26T20:27:43.041Z,81.56
2023-03-26T20:30:12.148Z,81.20
2023-03-26T20:32:45.157Z,81.77
2023-03-26T20:35:13.451Z,81.74
2023-03-26T20:37:41.603Z,81.67
2023-03-26T20:40:09.588Z,82.21
2023-03-26T20:42:38.034Z,81.88
2023-03-26T20:45:05.976Z,82.08
2023-03-26T20:47:34.728Z,82.27
2023-03-26T20:50:03.173Z,82.18
2023-03-26T20:52:31.103Z,82.38
2023-03-26T20:54:59.491Z,82.05
2023-03-26T20:57:28.178Z,82.19
2023-03-26T20:59:55.906Z,82.23
2023-03-26T21:02:23.913Z,82.46
2023-03-26T21:04:52.367Z,82.08
2023-03-26T21:07:20.190Z,82.48
2023-03-26T21:09:48.971Z,82.22
2023-03-26T21:12:17.037Z,82.08
2023-03-26T21:14:45.602Z,82.56
2023-03-26T21:17:13.516Z,82.16
2023-03-26T21:19:41.635Z,82.47
2023-03-26T21:22:09.462Z,82.27
2023-03-26T21:24:37.424Z,82.27
2023-03-26T21:27:05.998Z,82.63
2023-03-26T21:29:33.866Z,82.90
2023-03-26T21:32:01.774Z,82.38
2023-03-26T21:34:29.630Z,81.88
2023-03-26T21:36:57.751Z,82.43
2023-03-26T21:39:26.075Z,82.78
2023-03-26T21:42:05.455Z,82.09
2023-03-26T21:44:33.829Z,82.00
2023-03-26T21:47:01.665Z,82.36
2023-03-26T21:49:30.034Z,82.18
2023-03-26T21:51:57.988Z,82.34
2023-03-26T21:54:25.843Z,82.50
2023-03-26T21:56:53.902Z,82.59
2023-03-26T21:59:21.827Z,82.19
2023-03-26T22:01:50.222Z,82.25
2023-03-26T22:04:18.104Z,81.99
2023-03-26T22:06:45.978Z,82.44
2023-03-26T22:09:16.656Z,81.78
2023-03-26T22:11:46.673Z,82.28
2023-03-26T22:14:14.984Z,82.70
2023-03-26T22:16:42.766Z,82.20
2023-03-26T22:19:11.074Z,82.24
2023-03-26T22:21:39.136Z,82.41
2023-03-26T22:24:07.646Z,82.38
2023-03-26T22:26:35.379Z,82.45
2023-03-26T22:29:03.257Z,82.73
2023-03-26T22:31:31.108Z,82.02
2023-03-26T22:33:58.967Z,82.03
2023-03-26T22:36:27.510Z,82.84
2023-03-26T22:38:55.984Z,82.16
2023-03-26T22:41:23.682Z,82.82
2023-03-26T22:43:52.995Z,82.61
2023-03-26T22:46:20.869Z,82.32
2023-03-26T22:48:49.677Z,82.31
2023-03-26T22:51:17.901Z,82.28
2023-03-26T22:53:45.610Z,82.34
2023-03-26T22:56:14.468Z,82.78
2023-03-26T22:58:42.393Z,82.62
2023-03-26T23:01:10.375Z,82.84
2023-03-26T23:03:39.834Z,82.52
2023-03-26T23:06:08.188Z,82.37
2023-03-26T23:08:36.425Z,82.62
2023-03-26T23:11:04.208Z,82.23
2023-03-26T23:13:32.151Z,82.81
2023-03-26T23:16:06.347Z,82.58
2023-03-26T23:18:34.049Z,82.52
2023-03-26T23:21:01.771Z,82.60
2023-03-26T23:23:29.535Z,82.84
2023-03-26T23:25:58.895Z,82.13
2023-03-26T23:28:26.904Z,83.05
2023-03-26T23:30:54.852Z,82.19
2023-03-26T23:33:22.875Z,82.73
2023-03-26T23:35:50.852Z,83.12
2023-03-26T23:38:19.580Z,82.74
2023-03-26T23:40:57.021Z,82.24
2023-03-26T23:43:25.556Z,82.70
2023-03-26T23:45:53.253Z,82.80
2023-03-26T23:48:22.438Z,82.70
2023-03-26T23:50:51.165Z,82.49
2023-03-26T23:53:18.756Z,82.31
2023-03-26T23:55:46.413Z,82.80
2023-03-26T23:58:14.127Z,82.25
